Terminal Aerodrome Forecast
Issued by NWS Grand Junction, CO

Home | Current Version | Previous Version | Text Only | Print | Product List | Glossary On
Versions: 1 2 3 4 5 6 7 8 9 10 11 12 13 14 15 16 17 18 19 20 21 22 23 24 25 26 27 28 29 30 31 32 33 34 35 36 37 38 39 40 41 42 43
000
FTUS45 KGJT 032345
TAFGJT
TAF
KGJT 032345Z 0400/0424 27010G15KT P6SM VCSH SCT040 BKN070
      TEMPO 0400/0402 VRB10G20KT 5SM -SHRA SCT020 BKN040
     FM040200 33008KT P6SM VCSH SCT040 BKN070
     FM040600 35007KT P6SM VCSH SCT040 BKN070
     FM041200 02005KT P6SM FEW070
     FM041900 33006KT P6SM FEW080 FEW250=

USA.gov is the U.S. government's official web portal to all federal, state and local government web resources and services.